sensor_id;sensor_type;location;lat;lon;timestamp;P1;durP1;ratioP1;P2;durP2;ratioP2
43429;SDS011;29028;43.234;27.896;2022-12-07T05:01:50;11.23;;;8.50;;
43429;SDS011;29028;43.234;27.896;2022-12-07T05:02:10;10.75;;;8.80;;
43429;SDS011;29028;43.234;27.896;2022-12-07T05:02:31;10.35;;;8.43;;
43429;SDS011;29028;43.234;27.896;2022-12-07T05:02:52;10.38;;;8.90;;
43429;SDS011;29028;43.234;27.896;2022-12-07T05:03:14;12.75;;;8.82;;
43429;SDS011;29028;43.234;27.896;2022-12-07T05:03:35;13.07;;;8.93;;
43429;SDS011;29028;43.234;27.896;2022-12-07T05:03:56;10.88;;;9.05;;
43429;SDS011;29028;43.234;27.896;2022-12-07T05:04:17;12.30;;;9.10;;
43429;SDS011;29028;43.234;27.896;2022-12-07T05:04:39;11.77;;;8.88;;
43429;SDS011;29028;43.234;27.896;2022-12-07T05:04:59;11.70;;;8.70;;
43429;SDS011;29028;43.234;27.896;2022-12-07T05:05:20;12.43;;;9.50;;
43429;SDS011;29028;43.234;27.896;2022-12-07T05:05:41;11.73;;;9.35;;
43429;SDS011;29028;43.234;27.896;2022-12-07T05:06:02;11.57;;;9.00;;
43429;SDS011;29028;43.234;27.896;2022-12-07T05:06:24;12.40;;;9.07;;
43429;SDS011;29028;43.234;27.896;2022-12-07T05:06:45;11.23;;;9.07;;
43429;SDS011;29028;43.234;27.896;2022-12-07T05:07:06;10.55;;;8.63;;
43429;SDS011;29028;43.234;27.896;2022-12-07T05:07:27;10.93;;;8.73;;
43429;SDS011;29028;43.234;27.896;2022-12-07T05:07:48;12.02;;;9.30;;
43429;SDS011;29028;43.234;27.896;2022-12-07T05:08:09;10.90;;;8.80;;
43429;SDS011;29028;43.234;27.896;2022-12-07T05:08:30;12.93;;;9.00;;
43429;SDS011;29028;43.234;27.896;2022-12-07T05:08:52;12.68;;;9.25;;
43429;SDS011;29028;43.234;27.896;2022-12-07T05:09:14;10.80;;;8.38;;
43429;SDS011;29028;43.234;27.896;2022-12-07T05:09:34;7.30;;;5.75;;
43429;SDS011;29028;43.234;27.896;2022-12-07T05:09:55;7.63;;;6.37;;
43429;SDS011;29028;43.234;27.896;2022-12-07T05:10:16;10.35;;;8.32;;
43429;SDS011;29028;43.234;27.896;2022-12-07T05:10:38;13.57;;;10.73;;
43429;SDS011;29028;43.234;27.896;2022-12-07T05:10:59;15.25;;;11.45;;
43429;SDS011;29028;43.234;27.896;2022-12-07T05:11:20;15.45;;;11.90;;
43429;SDS011;29028;43.234;27.896;2022-12-07T05:11:59;13.77;;;11.07;;
43429;SDS011;29028;43.234;27.896;2022-12-07T05:12:20;13.77;;;10.70;;
43429;SDS011;29028;43.234;27.896;2022-12-07T05:12:41;13.02;;;9.75;;
43429;SDS011;29028;43.234;27.896;2022-12-07T05:13:02;12.13;;;9.82;;
43429;SDS011;29028;43.234;27.896;2022-12-07T05:13:23;10.47;;;9.30;;
43429;SDS011;29028;43.234;27.896;2022-12-07T05:13:44;9.98;;;8.80;;
43429;SDS011;29028;43.234;27.896;2022-12-07T05:14:06;12.00;;;8.93;;
43429;SDS011;29028;43.234;27.896;2022-12-07T05:14:29;9.35;;;7.93;;
43429;SDS011;29028;43.234;27.896;2022-12-07T05:14:50;9.27;;;8.10;;
43429;SDS011;29028;43.234;27.896;2022-12-07T05:15:11;10.43;;;8.70;;
43429;SDS011;29028;43.234;27.896;2022-12-07T05:15:34;10.55;;;8.85;;
43429;SDS011;29028;43.234;27.896;2022-12-07T05:15:55;9.82;;;8.65;;
43429;SDS011;29028;43.234;27.896;2022-12-07T05:16:15;11.65;;;8.63;;
43429;SDS011;29028;43.234;27.896;2022-12-07T05:16:38;9.95;;;8.45;;
43429;SDS011;29028;43.234;27.896;2022-12-07T05:16:59;10.75;;;8.85;;
43429;SDS011;29028;43.234;27.896;2022-12-07T05:17:21;9.85;;;8.35;;
43429;SDS011;29028;43.234;27.896;2022-12-07T05:17:42;10.83;;;8.53;;
43429;SDS011;29028;43.234;27.896;2022-12-07T05:18:03;11.00;;;8.70;;
43429;SDS011;29028;43.234;27.896;2022-12-07T05:18:24;10.98;;;9.02;;
43429;SDS011;29028;43.234;27.896;2022-12-07T05:18:46;10.27;;;8.20;;
43429;SDS011;29028;43.234;27.896;2022-12-07T05:19:07;10.95;;;8.27;;
43429;SDS011;29028;43.234;27.896;2022-12-07T05:19:28;10.10;;;8.27;;
43429;SDS011;29028;43.234;27.896;2022-12-07T05:19:50;9.50;;;8.35;;
43429;SDS011;29028;43.234;27.896;2022-12-07T05:20:11;10.40;;;8.48;;
43429;SDS011;29028;43.234;27.896;2022-12-07T05:20:32;10.63;;;8.32;;
43429;SDS011;29028;43.234;27.896;2022-12-07T05:20:53;9.53;;;8.50;;
43429;SDS011;29028;43.234;27.896;2022-12-07T05:21:14;11.27;;;8.70;;
43429;SDS011;29028;43.234;27.896;2022-12-07T05:21:35;10.52;;;8.75;;
43429;SDS011;29028;43.234;27.896;2022-12-07T05:21:57;10.68;;;8.65;;
43429;SDS011;29028;43.234;27.896;2022-12-07T05:22:17;10.90;;;8.70;;
43429;SDS011;29028;43.234;27.896;2022-12-07T05:22:40;11.65;;;8.80;;
43429;SDS011;29028;43.234;27.896;2022-12-07T05:23:01;11.40;;;8.85;;
43429;SDS011;29028;43.234;27.896;2022-12-07T05:23:22;11.67;;;8.63;;
43429;SDS011;29028;43.234;27.896;2022-12-07T05:23:42;12.00;;;8.80;;
43429;SDS011;29028;43.234;27.896;2022-12-07T05:24:03;11.05;;;8.82;;
43429;SDS011;29028;43.234;27.896;2022-12-07T05:24:26;10.93;;;9.13;;
43429;SDS011;29028;43.234;27.896;2022-12-07T05:24:47;10.45;;;8.85;;
43429;SDS011;29028;43.234;27.896;2022-12-07T05:25:08;10.60;;;9.00;;
43429;SDS011;29028;43.234;27.896;2022-12-07T05:25:29;10.45;;;9.25;;
43429;SDS011;29028;43.234;27.896;2022-12-07T05:25:51;11.25;;;9.27;;
43429;SDS011;29028;43.234;27.896;2022-12-07T05:26:12;11.77;;;9.43;;
43429;SDS011;29028;43.234;27.896;2022-12-07T05:26:33;13.23;;;10.13;;
43429;SDS011;29028;43.234;27.896;2022-12-07T05:26:54;12.82;;;10.50;;
43429;SDS011;29028;43.234;27.896;2022-12-07T05:27:16;12.18;;;10.50;;
43429;SDS011;29028;43.234;27.896;2022-12-07T05:27:36;13.63;;;10.23;;
43429;SDS011;29028;43.234;27.896;2022-12-07T05:27:57;12.30;;;9.70;;
43429;SDS011;29028;43.234;27.896;2022-12-07T05:28:18;12.38;;;9.75;;
43429;SDS011;29028;43.234;27.896;2022-12-07T05:28:39;12.27;;;9.83;;
43429;SDS011;29028;43.234;27.896;2022-12-07T05:29:01;11.15;;;9.13;;
43429;SDS011;29028;43.234;27.896;2022-12-07T05:29:22;12.00;;;9.00;;
43429;SDS011;29028;43.234;27.896;2022-12-07T05:29:43;11.85;;;9.00;;
43429;SDS011;29028;43.234;27.896;2022-12-07T05:30:05;12.40;;;9.18;;
43429;SDS011;29028;43.234;27.896;2022-12-07T05:30:26;11.75;;;9.35;;
43429;SDS011;29028;43.234;27.896;2022-12-07T05:30:48;11.38;;;9.07;;
43429;SDS011;29028;43.234;27.896;2022-12-07T05:31:08;12.20;;;9.38;;
43429;SDS011;29028;43.234;27.896;2022-12-07T05:31:29;11.80;;;9.27;;
43429;SDS011;29028;43.234;27.896;2022-12-07T05:31:52;11.88;;;9.25;;
43429;SDS011;29028;43.234;27.896;2022-12-07T05:32:13;11.73;;;9.20;;
43429;SDS011;29028;43.234;27.896;2022-12-07T05:32:34;10.52;;;8.88;;
43429;SDS011;29028;43.234;27.896;2022-12-07T05:32:55;11.10;;;9.18;;
43429;SDS011;29028;43.234;27.896;2022-12-07T05:33:17;10.93;;;9.05;;
43429;SDS011;29028;43.234;27.896;2022-12-07T05:33:37;11.55;;;9.35;;
43429;SDS011;29028;43.234;27.896;2022-12-07T05:33:58;12.48;;;9.48;;
43429;SDS011;29028;43.234;27.896;2022-12-07T05:34:19;11.68;;;9.10;;
43429;SDS011;29028;43.234;27.896;2022-12-07T05:34:41;10.43;;;8.80;;
43429;SDS011;29028;43.234;27.896;2022-12-07T05:35:02;12.95;;;9.10;;
43429;SDS011;29028;43.234;27.896;2022-12-07T05:35:23;12.90;;;9.25;;
43429;SDS011;29028;43.234;27.896;2022-12-07T05:35:44;11.43;;;9.18;;
43429;SDS011;29028;43.234;27.896;2022-12-07T05:36:06;11.60;;;9.48;;
43429;SDS011;29028;43.234;27.896;2022-12-07T05:36:27;10.90;;;9.43;;
43429;SDS011;29028;43.234;27.896;2022-12-07T05:36:48;13.10;;;9.65;;
43429;SDS011;29028;43.234;27.896;2022-12-07T05:37:10;12.15;;;9.48;;
43429;SDS011;29028;43.234;27.896;2022-12-07T05:37:32;11.68;;;9.00;;
43429;SDS011;29028;43.234;27.896;2022-12-07T05:37:53;11.43;;;9.50;;
43429;SDS011;29028;43.234;27.896;2022-12-07T05:38:13;11.75;;;9.20;;
43429;SDS011;29028;43.234;27.896;2022-12-07T05:38:34;11.77;;;9.15;;
43429;SDS011;29028;43.234;27.896;2022-12-07T05:38:55;12.38;;;9.20;;
43429;SDS011;29028;43.234;27.896;2022-12-07T05:39:17;13.38;;;9.15;;
43429;SDS011;29028;43.234;27.896;2022-12-07T05:39:38;13.15;;;9.50;;
43429;SDS011;29028;43.234;27.896;2022-12-07T05:40:00;11.93;;;9.07;;
43429;SDS011;29028;43.234;27.896;2022-12-07T05:40:22;12.20;;;9.30;;
43429;SDS011;29028;43.234;27.896;2022-12-07T05:40:43;11.43;;;9.32;;
43429;SDS011;29028;43.234;27.896;2022-12-07T05:41:04;12.18;;;9.38;;
43429;SDS011;29028;43.234;27.896;2022-12-07T05:41:26;11.43;;;9.10;;
43429;SDS011;29028;43.234;27.896;2022-12-07T05:42:08;12.60;;;9.18;;
43429;SDS011;29028;43.234;27.896;2022-12-07T05:42:33;11.80;;;9.35;;
43429;SDS011;29028;43.234;27.896;2022-12-07T05:42:55;11.85;;;8.63;;
43429;SDS011;29028;43.234;27.896;2022-12-07T05:43:16;11.32;;;8.80;;
43429;SDS011;29028;43.234;27.896;2022-12-07T05:43:37;12.52;;;9.30;;
43429;SDS011;29028;43.234;27.896;2022-12-07T05:43:58;14.73;;;9.50;;
43429;SDS011;29028;43.234;27.896;2022-12-07T05:44:20;12.05;;;9.38;;
43429;SDS011;29028;43.234;27.896;2022-12-07T05:44:41;11.23;;;8.90;;
43429;SDS011;29028;43.234;27.896;2022-12-07T05:45:04;11.38;;;8.90;;
43429;SDS011;29028;43.234;27.896;2022-12-07T05:45:26;11.38;;;9.18;;
43429;SDS011;29028;43.234;27.896;2022-12-07T05:45:47;12.13;;;9.93;;
43429;SDS011;29028;43.234;27.896;2022-12-07T05:46:08;13.38;;;9.82;;
43429;SDS011;29028;43.234;27.896;2022-12-07T05:46:29;12.75;;;9.52;;
43429;SDS011;29028;43.234;27.896;2022-12-07T05:46:50;12.35;;;9.40;;
43429;SDS011;29028;43.234;27.896;2022-12-07T05:47:13;12.07;;;9.20;;
43429;SDS011;29028;43.234;27.896;2022-12-07T05:47:35;12.50;;;9.27;;
43429;SDS011;29028;43.234;27.896;2022-12-07T05:47:57;12.80;;;9.45;;
43429;SDS011;29028;43.234;27.896;2022-12-07T05:48:17;12.45;;;9.77;;
43429;SDS011;29028;43.234;27.896;2022-12-07T05:48:38;12.32;;;10.02;;
43429;SDS011;29028;43.234;27.896;2022-12-07T05:48:59;12.27;;;9.53;;
43429;SDS011;29028;43.234;27.896;2022-12-07T05:49:20;11.55;;;9.70;;
43429;SDS011;29028;43.234;27.896;2022-12-07T05:49:42;12.50;;;9.52;;
43429;SDS011;29028;43.234;27.896;2022-12-07T05:50:03;14.40;;;9.88;;
43429;SDS011;29028;43.234;27.896;2022-12-07T05:50:25;11.45;;;9.25;;
43429;SDS011;29028;43.234;27.896;2022-12-07T05:50:47;10.90;;;9.20;;
43429;SDS011;29028;43.234;27.896;2022-12-07T05:51:09;11.73;;;9.32;;
43429;SDS011;29028;43.234;27.896;2022-12-07T05:51:29;11.85;;;9.43;;
43429;SDS011;29028;43.234;27.896;2022-12-07T05:51:50;11.68;;;9.23;;
43429;SDS011;29028;43.234;27.896;2022-12-07T05:52:11;12.73;;;9.83;;
43429;SDS011;29028;43.234;27.896;2022-12-07T05:52:33;12.55;;;9.65;;
43429;SDS011;29028;43.234;27.896;2022-12-07T05:52:57;12.38;;;9.90;;
43429;SDS011;29028;43.234;27.896;2022-12-07T05:53:18;12.43;;;9.82;;
43429;SDS011;29028;43.234;27.896;2022-12-07T05:53:39;11.48;;;9.55;;
43429;SDS011;29028;43.234;27.896;2022-12-07T05:54:00;12.65;;;9.98;;
43429;SDS011;29028;43.234;27.896;2022-12-07T05:54:21;11.80;;;9.57;;
43429;SDS011;29028;43.234;27.896;2022-12-07T05:54:42;11.73;;;9.55;;
43429;SDS011;29028;43.234;27.896;2022-12-07T05:55:03;11.43;;;9.43;;
43429;SDS011;29028;43.234;27.896;2022-12-07T05:55:27;11.23;;;9.50;;
43429;SDS011;29028;43.234;27.896;2022-12-07T05:55:47;11.98;;;9.48;;
43429;SDS011;29028;43.234;27.896;2022-12-07T05:56:08;13.18;;;9.65;;
43429;SDS011;29028;43.234;27.896;2022-12-07T05:56:29;12.63;;;9.55;;
43429;SDS011;29028;43.234;27.896;2022-12-07T05:56:50;11.30;;;9.10;;
43429;SDS011;29028;43.234;27.896;2022-12-07T05:57:12;11.70;;;9.00;;
43429;SDS011;29028;43.234;27.896;2022-12-07T05:57:32;11.70;;;9.27;;
43429;SDS011;29028;43.234;27.896;2022-12-07T05:57:53;10.90;;;9.18;;
43429;SDS011;29028;43.234;27.896;2022-12-07T05:58:33;13.50;;;9.82;;
43429;SDS011;29028;43.234;27.896;2022-12-07T05:59:12;12.00;;;9.68;;
43429;SDS011;29028;43.234;27.896;2022-12-07T05:59:42;11.00;;;9.43;;
43429;SDS011;29028;43.234;27.896;2022-12-07T06:00:03;11.38;;;9.40;;
43429;SDS011;29028;43.234;27.896;2022-12-07T06:00:26;12.00;;;9.38;;
43429;SDS011;29028;43.234;27.896;2022-12-07T06:00:47;11.80;;;9.15;;
43429;SDS011;29028;43.234;27.896;2022-12-07T06:01:07;12.97;;;9.83;;
43429;SDS011;29028;43.234;27.896;2022-12-07T06:01:28;12.60;;;9.98;;
43429;SDS011;29028;43.234;27.896;2022-12-07T06:01:49;12.80;;;9.70;;
43429;SDS011;29028;43.234;27.896;2022-12-07T06:02:11;12.48;;;9.60;;
43429;SDS011;29028;43.234;27.896;2022-12-07T06:02:35;12.98;;;9.98;;
43429;SDS011;29028;43.234;27.896;2022-12-07T06:02:56;12.55;;;9.93;;
43429;SDS011;29028;43.234;27.896;2022-12-07T06:03:17;12.23;;;9.18;;
43429;SDS011;29028;43.234;27.896;2022-12-07T06:03:37;12.07;;;9.55;;
43429;SDS011;29028;43.234;27.896;2022-12-07T06:04:00;12.43;;;9.40;;
43429;SDS011;29028;43.234;27.896;2022-12-07T06:04:23;11.95;;;9.25;;
43429;SDS011;29028;43.234;27.896;2022-12-07T06:04:45;12.23;;;9.32;;
43429;SDS011;29028;43.234;27.896;2022-12-07T06:05:07;12.07;;;9.60;;
43429;SDS011;29028;43.234;27.896;2022-12-07T06:05:29;12.90;;;9.82;;
43429;SDS011;29028;43.234;27.896;2022-12-07T06:05:49;12.98;;;9.70;;
43429;SDS011;29028;43.234;27.896;2022-12-07T06:06:12;13.13;;;9.63;;
43429;SDS011;29028;43.234;27.896;2022-12-07T06:06:33;12.85;;;9.95;;
43429;SDS011;29028;43.234;27.896;2022-12-07T06:06:54;12.20;;;9.98;;
43429;SDS011;29028;43.234;27.896;2022-12-07T06:07:16;13.00;;;10.05;;
43429;SDS011;29028;43.234;27.896;2022-12-07T06:07:37;14.05;;;10.35;;
43429;SDS011;29028;43.234;27.896;2022-12-07T06:07:58;14.07;;;10.00;;
43429;SDS011;29028;43.234;27.896;2022-12-07T06:08:19;12.15;;;9.75;;
43429;SDS011;29028;43.234;27.896;2022-12-07T06:08:40;12.32;;;9.27;;
43429;SDS011;29028;43.234;27.896;2022-12-07T06:09:04;13.18;;;9.82;;
43429;SDS011;29028;43.234;27.896;2022-12-07T06:09:26;13.30;;;9.60;;
43429;SDS011;29028;43.234;27.896;2022-12-07T06:09:47;12.55;;;9.52;;
43429;SDS011;29028;43.234;27.896;2022-12-07T06:10:10;12.20;;;9.50;;
43429;SDS011;29028;43.234;27.896;2022-12-07T06:10:30;12.63;;;9.70;;
43429;SDS011;29028;43.234;27.896;2022-12-07T06:10:51;13.40;;;10.13;;
43429;SDS011;29028;43.234;27.896;2022-12-07T06:11:32;11.75;;;9.90;;
43429;SDS011;29028;43.234;27.896;2022-12-07T06:12:11;12.63;;;10.13;;
43429;SDS011;29028;43.234;27.896;2022-12-07T06:12:51;13.57;;;10.77;;
43429;SDS011;29028;43.234;27.896;2022-12-07T06:13:12;13.05;;;10.30;;
43429;SDS011;29028;43.234;27.896;2022-12-07T06:13:34;14.60;;;10.50;;
43429;SDS011;29028;43.234;27.896;2022-12-07T06:13:54;13.63;;;10.15;;
43429;SDS011;29028;43.234;27.896;2022-12-07T06:14:15;14.73;;;10.60;;
43429;SDS011;29028;43.234;27.896;2022-12-07T06:14:37;13.48;;;10.50;;
43429;SDS011;29028;43.234;27.896;2022-12-07T06:14:59;13.38;;;10.32;;
43429;SDS011;29028;43.234;27.896;2022-12-07T06:15:20;12.90;;;10.60;;
43429;SDS011;29028;43.234;27.896;2022-12-07T06:15:43;13.07;;;10.60;;
43429;SDS011;29028;43.234;27.896;2022-12-07T06:16:05;13.40;;;10.45;;
43429;SDS011;29028;43.234;27.896;2022-12-07T06:16:26;12.70;;;10.48;;
43429;SDS011;29028;43.234;27.896;2022-12-07T06:16:47;14.98;;;10.60;;
43429;SDS011;29028;43.234;27.896;2022-12-07T06:17:08;15.25;;;11.00;;
43429;SDS011;29028;43.234;27.896;2022-12-07T06:17:32;14.82;;;11.85;;
43429;SDS011;29028;43.234;27.896;2022-12-07T06:17:53;14.52;;;11.70;;
43429;SDS011;29028;43.234;27.896;2022-12-07T06:18:13;15.73;;;11.20;;
43429;SDS011;29028;43.234;27.896;2022-12-07T06:18:34;14.20;;;10.85;;
43429;SDS011;29028;43.234;27.896;2022-12-07T06:18:55;14.10;;;10.68;;
43429;SDS011;29028;43.234;27.896;2022-12-07T06:19:17;13.25;;;10.60;;
43429;SDS011;29028;43.234;27.896;2022-12-07T06:19:38;14.67;;;10.70;;
43429;SDS011;29028;43.234;27.896;2022-12-07T06:19:59;14.85;;;10.90;;
43429;SDS011;29028;43.234;27.896;2022-12-07T06:20:21;11.82;;;10.07;;
43429;SDS011;29028;43.234;27.896;2022-12-07T06:20:41;12.33;;;9.90;;
43429;SDS011;29028;43.234;27.896;2022-12-07T06:21:02;12.73;;;9.82;;
43429;SDS011;29028;43.234;27.896;2022-12-07T06:21:23;13.43;;;10.15;;
43429;SDS011;29028;43.234;27.896;2022-12-07T06:21:45;12.50;;;9.60;;
43429;SDS011;29028;43.234;27.896;2022-12-07T06:22:08;13.25;;;10.13;;
43429;SDS011;29028;43.234;27.896;2022-12-07T06:22:30;12.05;;;10.43;;
43429;SDS011;29028;43.234;27.896;2022-12-07T06:22:52;12.35;;;9.98;;
43429;SDS011;29028;43.234;27.896;2022-12-07T06:23:13;12.07;;;9.82;;
43429;SDS011;29028;43.234;27.896;2022-12-07T06:23:33;12.00;;;9.82;;
43429;SDS011;29028;43.234;27.896;2022-12-07T06:23:54;14.13;;;9.80;;
43429;SDS011;29028;43.234;27.896;2022-12-07T06:24:17;13.80;;;10.20;;
43429;SDS011;29028;43.234;27.896;2022-12-07T06:24:38;12.50;;;9.93;;
43429;SDS011;29028;43.234;27.896;2022-12-07T06:24:59;12.45;;;9.73;;
43429;SDS011;29028;43.234;27.896;2022-12-07T06:25:21;11.65;;;9.60;;
43429;SDS011;29028;43.234;27.896;2022-12-07T06:25:44;11.83;;;9.60;;
43429;SDS011;29028;43.234;27.896;2022-12-07T06:26:05;12.23;;;9.85;;
43429;SDS011;29028;43.234;27.896;2022-12-07T06:26:26;12.83;;;9.67;;
43429;SDS011;29028;43.234;27.896;2022-12-07T06:26:47;13.45;;;9.95;;
43429;SDS011;29028;43.234;27.896;2022-12-07T06:27:09;14.00;;;10.30;;
43429;SDS011;29028;43.234;27.896;2022-12-07T06:27:30;13.57;;;10.05;;
43429;SDS011;29028;43.234;27.896;2022-12-07T06:27:52;13.15;;;9.90;;
43429;SDS011;29028;43.234;27.896;2022-12-07T06:28:15;13.65;;;9.85;;
43429;SDS011;29028;43.234;27.896;2022-12-07T06:28:37;11.93;;;9.20;;
43429;SDS011;29028;43.234;27.896;2022-12-07T06:28:57;13.38;;;9.90;;
43429;SDS011;29028;43.234;27.896;2022-12-07T06:29:19;14.07;;;9.50;;
43429;SDS011;29028;43.234;27.896;2022-12-07T06:29:42;13.38;;;9.70;;
43429;SDS011;29028;43.234;27.896;2022-12-07T06:30:03;12.50;;;9.77;;
43429;SDS011;29028;43.234;27.896;2022-12-07T06:30:26;12.65;;;10.10;;
43429;SDS011;29028;43.234;27.896;2022-12-07T06:30:56;13.63;;;9.45;;
43429;SDS011;29028;43.234;27.896;2022-12-07T06:31:17;13.80;;;9.45;;
43429;SDS011;29028;43.234;27.896;2022-12-07T06:31:38;14.40;;;9.68;;
43429;SDS011;29028;43.234;27.896;2022-12-07T06:31:59;14.73;;;9.80;;
43429;SDS011;29028;43.234;27.896;2022-12-07T06:32:21;14.18;;;9.73;;
43429;SDS011;29028;43.234;27.896;2022-12-07T06:32:43;14.97;;;9.53;;
43429;SDS011;29028;43.234;27.896;2022-12-07T06:33:04;14.52;;;9.40;;
43429;SDS011;29028;43.234;27.896;2022-12-07T06:33:25;14.20;;;9.90;;
43429;SDS011;29028;43.234;27.896;2022-12-07T06:33:47;15.15;;;9.80;;
43429;SDS011;29028;43.234;27.896;2022-12-07T06:34:09;15.23;;;10.00;;
43429;SDS011;29028;43.234;27.896;2022-12-07T06:34:31;14.27;;;9.88;;
43429;SDS011;29028;43.234;27.896;2022-12-07T06:34:53;14.35;;;10.05;;
43429;SDS011;29028;43.234;27.896;2022-12-07T06:35:14;14.68;;;9.85;;
43429;SDS011;29028;43.234;27.896;2022-12-07T06:35:35;15.57;;;9.50;;
43429;SDS011;29028;43.234;27.896;2022-12-07T06:35:56;16.23;;;9.48;;
43429;SDS011;29028;43.234;27.896;2022-12-07T06:36:18;15.10;;;9.60;;
43429;SDS011;29028;43.234;27.896;2022-12-07T06:36:38;13.53;;;9.63;;
43429;SDS011;29028;43.234;27.896;2022-12-07T06:36:59;12.65;;;9.30;;
43429;SDS011;29028;43.234;27.896;2022-12-07T06:37:21;15.35;;;9.40;;
43429;SDS011;29028;43.234;27.896;2022-12-07T06:37:42;13.50;;;8.98;;
43429;SDS011;29028;43.234;27.896;2022-12-07T06:38:03;13.23;;;8.95;;
43429;SDS011;29028;43.234;27.896;2022-12-07T06:38:24;12.88;;;8.88;;
43429;SDS011;29028;43.234;27.896;2022-12-07T06:38:45;13.07;;;9.15;;
43429;SDS011;29028;43.234;27.896;2022-12-07T06:39:06;13.75;;;8.88;;
43429;SDS011;29028;43.234;27.896;2022-12-07T06:39:29;13.63;;;9.02;;
43429;SDS011;29028;43.234;27.896;2022-12-07T06:39:51;12.85;;;9.18;;
43429;SDS011;29028;43.234;27.896;2022-12-07T06:40:12;11.50;;;8.82;;
43429;SDS011;29028;43.234;27.896;2022-12-07T06:40:33;10.90;;;8.57;;
43429;SDS011;29028;43.234;27.896;2022-12-07T06:40:54;10.23;;;8.40;;
43429;SDS011;29028;43.234;27.896;2022-12-07T06:41:14;12.07;;;8.88;;
43429;SDS011;29028;43.234;27.896;2022-12-07T06:41:36;11.57;;;8.90;;
43429;SDS011;29028;43.234;27.896;2022-12-07T06:41:58;11.27;;;8.18;;
43429;SDS011;29028;43.234;27.896;2022-12-07T06:42:19;13.10;;;9.05;;
43429;SDS011;29028;43.234;27.896;2022-12-07T06:42:41;12.15;;;8.95;;
43429;SDS011;29028;43.234;27.896;2022-12-07T06:43:02;12.23;;;9.13;;
43429;SDS011;29028;43.234;27.896;2022-12-07T06:43:22;11.88;;;8.52;;
43429;SDS011;29028;43.234;27.896;2022-12-07T06:43:43;11.30;;;9.10;;
43429;SDS011;29028;43.234;27.896;2022-12-07T06:44:04;12.63;;;9.35;;
43429;SDS011;29028;43.234;27.896;2022-12-07T06:44:26;12.35;;;9.10;;
43429;SDS011;29028;43.234;27.896;2022-12-07T06:44:47;11.45;;;8.70;;
43429;SDS011;29028;43.234;27.896;2022-12-07T06:45:08;10.68;;;8.50;;
43429;SDS011;29028;43.234;27.896;2022-12-07T06:45:29;10.35;;;8.32;;
43429;SDS011;29028;43.234;27.896;2022-12-07T06:45:51;10.40;;;8.55;;
43429;SDS011;29028;43.234;27.896;2022-12-07T06:46:12;11.98;;;8.70;;
43429;SDS011;29028;43.234;27.896;2022-12-07T06:46:33;13.18;;;8.95;;
43429;SDS011;29028;43.234;27.896;2022-12-07T06:46:55;13.35;;;9.10;;
43429;SDS011;29028;43.234;27.896;2022-12-07T06:47:17;11.63;;;8.50;;
43429;SDS011;29028;43.234;27.896;2022-12-07T06:47:37;11.85;;;8.52;;
43429;SDS011;29028;43.234;27.896;2022-12-07T06:48:00;11.38;;;8.55;;
43429;SDS011;29028;43.234;27.896;2022-12-07T06:48:20;11.15;;;8.60;;
43429;SDS011;29028;43.234;27.896;2022-12-07T06:48:42;13.18;;;9.00;;
43429;SDS011;29028;43.234;27.896;2022-12-07T06:49:04;12.82;;;9.38;;
43429;SDS011;29028;43.234;27.896;2022-12-07T06:49:25;12.45;;;9.35;;
43429;SDS011;29028;43.234;27.896;2022-12-07T06:49:47;12.48;;;9.60;;
43429;SDS011;29028;43.234;27.896;2022-12-07T06:50:08;13.88;;;9.98;;
43429;SDS011;29028;43.234;27.896;2022-12-07T06:50:29;15.50;;;10.52;;
43429;SDS011;29028;43.234;27.896;2022-12-07T06:50:50;13.67;;;10.30;;
43429;SDS011;29028;43.234;27.896;2022-12-07T06:51:11;13.40;;;9.93;;
43429;SDS011;29028;43.234;27.896;2022-12-07T06:51:33;13.27;;;9.70;;
43429;SDS011;29028;43.234;27.896;2022-12-07T06:51:56;14.57;;;10.00;;
43429;SDS011;29028;43.234;27.896;2022-12-07T06:52:17;14.27;;;10.77;;
43429;SDS011;29028;43.234;27.896;2022-12-07T06:52:38;12.57;;;10.45;;
43429;SDS011;29028;43.234;27.896;2022-12-07T06:52:59;17.35;;;10.75;;
43429;SDS011;29028;43.234;27.896;2022-12-07T06:53:20;16.50;;;10.60;;
43429;SDS011;29028;43.234;27.896;2022-12-07T06:53:41;14.55;;;10.55;;
43429;SDS011;29028;43.234;27.896;2022-12-07T06:54:02;14.27;;;10.52;;
43429;SDS011;29028;43.234;27.896;2022-12-07T06:54:25;13.80;;;10.13;;
43429;SDS011;29028;43.234;27.896;2022-12-07T06:54:45;15.60;;;10.43;;
43429;SDS011;29028;43.234;27.896;2022-12-07T06:55:06;15.95;;;10.55;;
43429;SDS011;29028;43.234;27.896;2022-12-07T06:55:27;14.43;;;10.32;;
43429;SDS011;29028;43.234;27.896;2022-12-07T06:55:49;17.20;;;10.45;;
43429;SDS011;29028;43.234;27.896;2022-12-07T06:56:10;16.73;;;10.57;;
43429;SDS011;29028;43.234;27.896;2022-12-07T06:56:30;19.63;;;10.75;;
43429;SDS011;29028;43.234;27.896;2022-12-07T06:56:51;18.13;;;10.88;;
43429;SDS011;29028;43.234;27.896;2022-12-07T06:57:13;15.57;;;10.70;;
43429;SDS011;29028;43.234;27.896;2022-12-07T06:57:34;15.93;;;10.15;;
43429;SDS011;29028;43.234;27.896;2022-12-07T06:57:55;15.93;;;10.07;;
43429;SDS011;29028;43.234;27.896;2022-12-07T06:58:15;14.27;;;9.45;;
43429;SDS011;29028;43.234;27.896;2022-12-07T06:58:39;15.95;;;9.98;;
43429;SDS011;29028;43.234;27.896;2022-12-07T06:59:00;17.25;;;9.75;;
43429;SDS011;29028;43.234;27.896;2022-12-07T06:59:21;15.33;;;9.57;;
43429;SDS011;29028;43.234;27.896;2022-12-07T06:59:42;14.38;;;9.45;;
43429;SDS011;29028;43.234;27.896;2022-12-07T07:00:04;15.18;;;9.15;;
43429;SDS011;29028;43.234;27.896;2022-12-07T07:00:26;14.50;;;9.27;;
43429;SDS011;29028;43.234;27.896;2022-12-07T07:00:47;14.50;;;9.47;;
43429;SDS011;29028;43.234;27.896;2022-12-07T07:01:10;13.80;;;9.27;;
43429;SDS011;29028;43.234;27.896;2022-12-07T07:01:32;13.68;;;9.25;;
43429;SDS011;29028;43.234;27.896;2022-12-07T07:01:53;15.32;;;9.38;;
43429;SDS011;29028;43.234;27.896;2022-12-07T07:02:15;12.80;;;9.35;;
43429;SDS011;29028;43.234;27.896;2022-12-07T07:02:36;13.50;;;10.18;;
43429;SDS011;29028;43.234;27.896;2022-12-07T07:02:57;17.73;;;11.45;;
43429;SDS011;29028;43.234;27.896;2022-12-07T07:03:19;16.27;;;10.80;;
43429;SDS011;29028;43.234;27.896;2022-12-07T07:03:41;16.83;;;11.27;;
43429;SDS011;29028;43.234;27.896;2022-12-07T07:04:02;16.05;;;10.88;;
43429;SDS011;29028;43.234;27.896;2022-12-07T07:04:23;16.10;;;11.15;;
43429;SDS011;29028;43.234;27.896;2022-12-07T07:04:45;15.10;;;10.85;;
43429;SDS011;29028;43.234;27.896;2022-12-07T07:05:06;17.58;;;11.27;;
43429;SDS011;29028;43.234;27.896;2022-12-07T07:05:27;15.93;;;11.88;;
43429;SDS011;29028;43.234;27.896;2022-12-07T07:05:48;18.05;;;13.18;;
43429;SDS011;29028;43.234;27.896;2022-12-07T07:06:09;19.13;;;13.75;;
43429;SDS011;29028;43.234;27.896;2022-12-07T07:06:31;18.38;;;13.95;;
43429;SDS011;29028;43.234;27.896;2022-12-07T07:06:52;17.85;;;14.30;;
43429;SDS011;29028;43.234;27.896;2022-12-07T07:07:13;19.15;;;14.20;;
43429;SDS011;29028;43.234;27.896;2022-12-07T07:07:35;19.15;;;14.77;;
43429;SDS011;29028;43.234;27.896;2022-12-07T07:07:56;21.77;;;15.63;;
43429;SDS011;29028;43.234;27.896;2022-12-07T07:08:17;22.63;;;15.93;;
43429;SDS011;29028;43.234;27.896;2022-12-07T07:08:38;23.77;;;16.80;;